Americus, GA

8:10 AM EST en Noviembre 23, 2014 (GMT -0500)
Souther | Change Station
CLOSE
Current Station
Aeropuerto
Location: Americus,
Altura: 469 ft
Estaciones meteorológicas cercanas

Alt 469 ft 32.11 °N, 84.19 °W | Updated 15 minutes ago

Lluvia
Lluvia
59 ° F
Sensación térmica 59 ° F
N
12
Viento Variable Viento desde ESE

Hoy
Alta -- | Baja -- ° F
--% Posibilidad de precipitaciones
Ayer
Alta -- | Baja -- ° F
Precip. -- pul
7:12 AM 5:33 PM
Luna nueva, 1% visible
Presión 29.98 pul
Visibilidad 4.0 Millas
Nubes Nublado 500 ft
Punto de rocío 59 ° F
Humedad 100%
Precipitaciones 0.00 pul
Espesor de la nieve No disponible.
UV 0 de una escala de 12
Polen .30 de una escala de 12
Calidad del aire No disponible.
Flu Activity No disponible.
METAR KACJ 231255Z AUTO 11010KT 4SM RA OVC005 15/15 A2998 RMK AO2

More Conditions Fewer Conditions

Presión 29.98 pul
Visibilidad 4.0 Millas
Nubes Nublado 500 ft
Punto de rocío 59 ° F
Humedad 100%
Precipitaciones 0.00 pul
Espesor de la nieve No disponible.
UV 0 de una escala de 12
Polen .30 de una escala de 12
Calidad del aire No disponible.
Flu Activity No disponible.
METAR KACJ 231255Z AUTO 11010KT 4SM RA OVC005 15/15 A2998 RMK AO2

More Conditions Fewer Conditions

10-Day Weather Forecast

Almanac

Astronomía

Nov. 23, 2014 Salida Puesta
Hora real
Crepúsculo civil
Crepúsculo náutico
Crepúsculo astronómico
Luna
Horas de luz
Horas de luz
Tomorrow will be .
, % of the Moon is Illuminated

Extremos de hoy

Máximos del estado Bajos del estado

Community

WunderPhotos

Upload Photos

1,773,054 ¡fotos cargadas!

WunderBlogs® & News

Nearby

Calidad del aire

  Calidad del aire Índice AQ Contaminante
Not available.

Grosos de nieve

Estación Profundido Altura

Actividad de terremotos

Ciudad Distance Mag. Tiempo y dato
Magnitud mínima muestra es 2,5.

Temperaturas de aguas costeras

Lugar Temperatura

Estaciones meteorológicas cercanas